Forester — DIUT — position and weather

sailwx.info

Track history (hours):
 
Tides and Currents Weather Stations Pressure Air Temp Water Temp Dewpoint Dewpoint Depression Visibility Wind Speed Wind Dir Waves Ship Positions

Forester

Last reported at 2015-Apr-17 11:21 UTC. Time now 2015-Apr-18 13:11 UTC.
Position N 35°24' E 021°59'.

Length 100 m; draft 6.5 m.

Type: Ship. MMSI: 211233870.

Date/timePositionNaut miles runAvg speedWind from/ knotsBaromVisibWave heightAir tempDewpointWater temp
2015-Apr-17 11:21N 35°24' E 021°59'33411.1
2015-Apr-16 05:18N 36°29' E 015°14'1211.3
2015-Apr-16 04:15N 36°32' E 014°60'811.5
2015-Apr-16 03:33N 36°33' E 014°50'1111.0
2015-Apr-16 02:33N 36°37' E 014°37'1111.3
2015-Apr-16 01:33N 36°42' E 014°25'1111.5
2015-Apr-16 00:33N 36°48' E 014°12'1211.6
2015-Apr-15 23:33N 36°54' E 013°60'1111.4
2015-Apr-15 22:33N 36°60' E 013°48'1211.1
2015-Apr-15 21:31N 37°05' E 013°35'1111.0
2015-Apr-15 20:33N 37°10' E 013°23'4911.1
2015-Apr-15 16:12N 37°34' E 012°30'710.9
2015-Apr-15 15:33N 37°37' E 012°22'1111.1
2015-Apr-15 14:33N 37°43' E 012°10'1211.1
2015-Apr-15 13:30N 37°48' E 011°57'1010.9
2015-Apr-15 12:33N 37°51' E 011°44'18611.5
2015-Apr-14 20:23N 37°42' E 007°49'1111.0
2015-Apr-14 19:21N 37°40' E 007°35'3311.1
2015-Apr-14 16:25N 37°35' E 006°54'13610.4
2015-Apr-14 03:18N 37°12' E 004°06'810.4
2015-Apr-14 02:33N 37°10' E 003°56'1010.2
2015-Apr-14 01:33N 37°09' E 003°43'1110.8
2015-Apr-14 00:33N 37°07' E 003°30'1110.8
2015-Apr-13 23:32N 37°05' E 003°16'1310.6
2015-Apr-13 22:20N 37°03' E 003°01'810.4
2015-Apr-13 21:33N 37°02' E 002°51'1010.2
2015-Apr-13 20:33N 37°00' E 002°38'19 9.4
2015-Apr-13 18:33N 36°57' E 002°15'9 8.6
2015-Apr-13 17:33N 36°56' E 002°04'10 9.3
2015-Apr-13 16:28N 36°54' E 001°52'910.1
2015-Apr-13 15:34N 36°52' E 001°40'1110.1
2015-Apr-13 14:27N 36°50' E 001°27'910.5
2015-Apr-13 13:33N 36°49' E 001°15'1310.2
2015-Apr-13 12:16N 36°47' E 000°59'2110.1
2015-Apr-13 10:09N 36°44' E 000°33'6 9.7
2015-Apr-13 09:33N 36°43' E 000°25'5110.0
2015-Apr-13 04:31N 36°34' W 000°37'221 8.1
2015-Apr-12 01:16N 36°01' W 005°08'810.8
2015-Apr-12 00:34N 35°60' W 005°17'1211.9
2015-Apr-11 23:33N 35°57' W 005°32'251 9.6
2015-Apr-10 21:32N 38°13' W 009°56'1111.2
2015-Apr-10 20:33N 38°23' W 009°59'1111.3
2015-Apr-10 19:33N 38°34' W 010°02'1111.2
2015-Apr-10 18:33N 38°45' W 010°05'1111.3
2015-Apr-10 17:33N 38°56' W 010°05'1111.3
2015-Apr-10 16:33N 39°08' W 010°05'  
2015-Apr-07 21:09N 50°04' W 003°31'6 9.4
2015-Apr-07 20:33N 50°06' W 003°23'10 9.8
2015-Apr-07 19:33N 50°09' W 003°09'1010.4
2015-Apr-07 18:33N 50°12' W 002°53'1211.5
2015-Apr-07 17:33N 50°16' W 002°36'1313.1
2015-Apr-07 16:33N 50°20' W 002°17'1414.2
2015-Apr-07 15:33N 50°24' W 001°55'1414.2
2015-Apr-07 14:34N 50°27' W 001°34'1413.8
2015-Apr-07 13:33N 50°28' W 001°12'1212.2
2015-Apr-07 12:34N 50°29' W 000°53'1010.4
2015-Apr-07 11:34N 50°30' W 000°37'  
Track history (hours):
 
Tides and Currents Weather Stations Pressure Air Temp Water Temp Dewpoint Dewpoint Depression Visibility Wind Speed Wind Dir Waves Ship Positions

Forester

Last reported at 2015-Apr-17 11:21 UTC. Time now 2015-Apr-18 13:11 UTC.
Position N 35°24' E 021°59'.

Length 100 m; draft 6.5 m.

Type: Ship. MMSI: 211233870.

Date/timePositionNaut miles runAvg speedWind from/ knotsBaromVisibWave heightAir tempDewpointWater temp
2015-Apr-17 11:21N 35°24' E 021°59'33411.1
2015-Apr-16 05:18N 36°29' E 015°14'1211.3
2015-Apr-16 04:15N 36°32' E 014°60'811.5
2015-Apr-16 03:33N 36°33' E 014°50'1111.0
2015-Apr-16 02:33N 36°37' E 014°37'1111.3
2015-Apr-16 01:33N 36°42' E 014°25'1111.5
2015-Apr-16 00:33N 36°48' E 014°12'1211.6
2015-Apr-15 23:33N 36°54' E 013°60'1111.4
2015-Apr-15 22:33N 36°60' E 013°48'1211.1
2015-Apr-15 21:31N 37°05' E 013°35'1111.0
2015-Apr-15 20:33N 37°10' E 013°23'4911.1
2015-Apr-15 16:12N 37°34' E 012°30'710.9
2015-Apr-15 15:33N 37°37' E 012°22'1111.1
2015-Apr-15 14:33N 37°43' E 012°10'1211.1
2015-Apr-15 13:30N 37°48' E 011°57'1010.9
2015-Apr-15 12:33N 37°51' E 011°44'18611.5
2015-Apr-14 20:23N 37°42' E 007°49'1111.0
2015-Apr-14 19:21N 37°40' E 007°35'3311.1
2015-Apr-14 16:25N 37°35' E 006°54'13610.4
2015-Apr-14 03:18N 37°12' E 004°06'810.4
2015-Apr-14 02:33N 37°10' E 003°56'1010.2
2015-Apr-14 01:33N 37°09' E 003°43'1110.8
2015-Apr-14 00:33N 37°07' E 003°30'1110.8
2015-Apr-13 23:32N 37°05' E 003°16'1310.6
2015-Apr-13 22:20N 37°03' E 003°01'810.4
2015-Apr-13 21:33N 37°02' E 002°51'1010.2
2015-Apr-13 20:33N 37°00' E 002°38'19 9.4
2015-Apr-13 18:33N 36°57' E 002°15'9 8.6
2015-Apr-13 17:33N 36°56' E 002°04'10 9.3
2015-Apr-13 16:28N 36°54' E 001°52'910.1
2015-Apr-13 15:34N 36°52' E 001°40'1110.1
2015-Apr-13 14:27N 36°50' E 001°27'910.5
2015-Apr-13 13:33N 36°49' E 001°15'1310.2
2015-Apr-13 12:16N 36°47' E 000°59'2110.1
2015-Apr-13 10:09N 36°44' E 000°33'6 9.7
2015-Apr-13 09:33N 36°43' E 000°25'5110.0
2015-Apr-13 04:31N 36°34' W 000°37'221 8.1
2015-Apr-12 01:16N 36°01' W 005°08'810.8
2015-Apr-12 00:34N 35°60' W 005°17'1211.9
2015-Apr-11 23:33N 35°57' W 005°32'251 9.6
2015-Apr-10 21:32N 38°13' W 009°56'1111.2
2015-Apr-10 20:33N 38°23' W 009°59'1111.3
2015-Apr-10 19:33N 38°34' W 010°02'1111.2
2015-Apr-10 18:33N 38°45' W 010°05'1111.3
2015-Apr-10 17:33N 38°56' W 010°05'1111.3
2015-Apr-10 16:33N 39°08' W 010°05'  
2015-Apr-07 21:09N 50°04' W 003°31'6 9.4
2015-Apr-07 20:33N 50°06' W 003°23'10 9.8
2015-Apr-07 19:33N 50°09' W 003°09'1010.4
2015-Apr-07 18:33N 50°12' W 002°53'1211.5
2015-Apr-07 17:33N 50°16' W 002°36'1313.1
2015-Apr-07 16:33N 50°20' W 002°17'1414.2
2015-Apr-07 15:33N 50°24' W 001°55'1414.2
2015-Apr-07 14:34N 50°27' W 001°34'1413.8
2015-Apr-07 13:33N 50°28' W 001°12'1212.2
2015-Apr-07 12:34N 50°29' W 000°53'1010.4
2015-Apr-07 11:34N 50°30' W 000°37'  

Dump ship's entire track history